createdAt,value
2024-01-15T00:01:20.659Z,992.6908999999999
2024-01-15T00:31:38.751Z,992.5310000000001
2024-01-15T01:01:57.970Z,992.191
2024-01-15T02:02:35.170Z,991.9680000000001
2024-01-15T02:32:53.441Z,991.675
2024-01-15T03:03:12.013Z,991.5989999999999
2024-01-15T03:33:31.113Z,991.434
2024-01-15T04:03:50.048Z,991.1699000000001
2024-01-15T04:34:09.118Z,991.3549
2024-01-15T05:04:26.318Z,991.2810000000001
2024-01-15T05:34:44.650Z,991.1060000000001
2024-01-15T06:05:02.328Z,990.909
2024-01-15T06:35:23.410Z,990.823
2024-01-15T07:05:42.305Z,990.85
2024-01-15T07:36:03.645Z,990.788
2024-01-15T08:36:43.187Z,990.568
2024-01-15T09:07:02.112Z,990.967
2024-01-15T09:37:32.344Z,990.6619999999999
2024-01-15T10:07:46.766Z,990.7330000000001
2024-01-15T10:38:07.048Z,990.612
2024-01-15T11:08:25.482Z,990.2739999999999
2024-01-15T11:38:43.980Z,990.0689
2024-01-15T12:09:02.197Z,990.0278999999999
2024-01-15T13:09:39.866Z,990.012
2024-01-15T13:39:56.234Z,990.1060000000001
2024-01-15T14:10:13.727Z,990.294
2024-01-15T14:40:33.123Z,990.663
2024-01-15T15:10:52.497Z,990.997
2024-01-15T15:41:10.173Z,991.567
2024-01-15T16:11:27.682Z,991.865
2024-01-15T16:41:45.058Z,992.415
2024-01-15T17:12:04.717Z,992.9989999999999
2024-01-15T17:42:23.407Z,993.3919999999999
2024-01-15T18:12:40.645Z,993.7760000000001
2024-01-15T18:43:00.413Z,994.2229
2024-01-15T19:13:19.042Z,994.3999
2024-01-15T19:43:36.969Z,994.8328999999999
2024-01-15T20:13:54.409Z,994.9408999999999
2024-01-15T20:44:12.133Z,995.012
2024-01-15T21:14:28.631Z,995.243
2024-01-15T21:44:47.163Z,995.554
2024-01-15T22:15:07.134Z,995.9849
2024-01-15T22:45:24.805Z,996.4028999999999
2024-01-15T23:15:42.203Z,996.6669999999999
2024-01-15T23:46:06.245Z,996.887
